Time;durP1;ratioP1;P1;durP2;ratioP2;P2;SDS_P1;SDS_P2;PMS_P1;PMS_P2;Temp;Humidity;BMP_temperature;BMP_pressure;BME280_temperature;BME280_humidity;BME280_pressure;Samples;Min_cycle;Max_cycle;Signal;HPM_P1;HPM_P2
2023/01/06 00:02:01;;;;;;;692.33;351.52;;;6.80;99.90;;;;;;5053818;28;20028;-73
2023/01/06 00:04:27;;;;;;;690.08;348.48;;;6.60;99.90;;;;;;5053934;28;20489;-73
2023/01/06 00:06:53;;;;;;;687.03;349.35;;;6.70;99.90;;;;;;5053645;28;20045;-73
2023/01/06 00:09:19;;;;;;;667.60;344.23;;;6.70;99.90;;;;;;5053683;28;20035;-73
2023/01/06 00:11:45;;;;;;;633.28;325.50;;;6.70;99.90;;;;;;5053738;28;20272;-74
2023/01/06 00:14:11;;;;;;;575.63;292.55;;;6.80;99.90;;;;;;5053764;28;20032;-73
2023/01/06 00:16:36;;;;;;;586.50;300.13;;;6.80;99.90;;;;;;5053572;28;20033;-73
2023/01/06 00:19:02;;;;;;;580.97;298.88;;;6.70;99.90;;;;;;5044222;28;20025;-73
2023/01/06 00:21:29;;;;;;;575.58;292.17;;;6.60;99.90;;;;;;5033754;28;20479;-73
2023/01/06 00:23:55;;;;;;;541.85;274.48;;;6.70;99.90;;;;;;5033704;28;20025;-73
2023/01/06 00:26:21;;;;;;;577.85;289.27;;;6.70;99.90;;;;;;5033691;28;20165;-73
2023/01/06 00:28:51;;;;;;;544.75;280.27;;;6.70;99.90;;;;;;5033818;28;20072;-73
2023/01/06 00:31:17;;;;;;;542.83;275.70;;;6.60;99.90;;;;;;5045474;28;20029;-73
2023/01/06 00:33:43;;;;;;;582.20;297.17;;;6.70;99.90;;;;;;5039081;28;20025;-73
2023/01/06 00:36:11;;;;;;;568.05;290.80;;;6.60;99.90;;;;;;5057388;28;20029;-73
2023/01/06 00:38:38;;;;;;;602.92;313.30;;;6.70;99.90;;;;;;5056191;28;20478;-73
2023/01/06 00:42:02;;;;;;;618.78;323.08;;;6.70;99.90;;;;;;5057357;28;20029;-73
2023/01/06 00:43:51;;;;;;;602.22;309.25;;;6.80;99.90;;;;;;5057302;28;20033;-73
2023/01/06 00:46:18;;;;;;;598.53;313.58;;;6.70;99.90;;;;;;5056923;28;20044;-73
2023/01/06 00:48:44;;;;;;;604.35;309.52;;;6.80;99.90;;;;;;5057341;28;20079;-73
2023/01/06 00:51:10;;;;;;;595.03;301.27;;;6.80;99.90;;;;;;5057049;28;20029;-73
2023/01/06 00:53:36;;;;;;;567.90;287.42;;;6.90;99.90;;;;;;5057273;28;20029;-73
2023/01/06 00:56:02;;;;;;;589.42;306.48;;;7.00;99.90;;;;;;5055690;28;20103;-73
2023/01/06 00:58:29;;;;;;;592.33;304.55;;;7.00;99.90;;;;;;5057178;28;20125;-73
2023/01/06 01:00:55;;;;;;;629.28;327.67;;;6.90;99.90;;;;;;5056690;28;20029;-73
2023/01/06 01:03:21;;;;;;;650.33;342.70;;;6.90;99.90;;;;;;5055660;28;20033;-73
2023/01/06 01:05:47;;;;;;;618.95;325.25;;;6.80;99.90;;;;;;5056617;28;20516;-72
2023/01/06 01:08:13;;;;;;;594.50;313.17;;;6.70;99.90;;;;;;5056861;28;20029;-73
2023/01/06 01:10:40;;;;;;;598.90;316.33;;;6.70;99.90;;;;;;5056943;28;20025;-73
2023/01/06 01:13:07;;;;;;;634.97;335.38;;;6.70;99.90;;;;;;5056502;28;20044;-73
2023/01/06 01:15:33;;;;;;;629.53;329.02;;;6.60;99.90;;;;;;5055536;28;20538;-73
2023/01/06 01:17:59;;;;;;;625.30;331.02;;;6.60;99.90;;;;;;5055937;28;20061;-73
2023/01/06 01:20:24;;;;;;;609.08;314.80;;;6.60;99.90;;;;;;5036696;28;20061;-73
2023/01/06 01:22:50;;;;;;;605.92;311.98;;;6.70;99.90;;;;;;5036664;28;20087;-73
2023/01/06 01:25:16;;;;;;;609.65;315.02;;;6.80;99.90;;;;;;5035186;28;20103;-73
2023/01/06 01:27:42;;;;;;;583.47;299.40;;;6.80;99.90;;;;;;5018854;28;20026;-73
2023/01/06 01:30:09;;;;;;;582.33;297.33;;;6.90;99.90;;;;;;5038906;28;20021;-73
2023/01/06 01:32:34;;;;;;;577.17;298.73;;;7.00;99.90;;;;;;5056418;28;20092;-73
2023/01/06 01:35:00;;;;;;;552.28;280.48;;;6.90;99.90;;;;;;5056127;28;20029;-73
2023/01/06 01:37:26;;;;;;;570.90;292.20;;;6.90;99.90;;;;;;5056489;28;20021;-73
2023/01/06 01:39:52;;;;;;;551.22;285.42;;;6.80;99.90;;;;;;5056446;28;20029;-73
2023/01/06 01:42:20;;;;;;;537.70;273.50;;;6.80;99.90;;;;;;5038261;28;20037;-73
2023/01/06 01:45:03;;;;;;;526.88;259.15;;;6.80;99.90;;;;;;5054893;28;20534;-73
2023/01/06 01:48:02;;;;;;;510.30;254.38;;;6.80;99.90;;;;;;5038194;28;20033;-73
2023/01/06 01:50:44;;;;;;;502.77;245.73;;;7.00;99.90;;;;;;5056166;28;20029;-73
2023/01/06 01:53:20;;;;;;;504.38;246.93;;;6.90;99.90;;;;;;5056034;28;20033;-73
2023/01/06 01:55:49;;;;;;;486.15;239.52;;;7.00;99.90;;;;;;5056062;28;20036;-73
2023/01/06 01:58:20;;;;;;;495.25;239.38;;;7.00;99.90;;;;;;5038009;28;20040;-72
2023/01/06 02:00:46;;;;;;;464.08;227.75;;;7.00;99.90;;;;;;5056109;28;20447;-73
2023/01/06 02:03:14;;;;;;;437.80;216.27;;;7.10;99.90;;;;;;5055843;28;20064;-73
2023/01/06 02:05:44;;;;;;;390.58;189.95;;;7.10;99.90;;;;;;5055836;28;20098;-72
2023/01/06 02:08:48;;;;;;;341.90;167.25;;;6.90;99.90;;;;;;5055708;28;20040;-73
2023/01/06 02:11:15;;;;;;;358.40;177.63;;;7.10;99.90;;;;;;4977475;28;20430;-73
2023/01/06 02:13:43;;;;;;;359.55;179.07;;;6.80;99.90;;;;;;4994036;28;20508;-73
2023/01/06 02:16:45;;;;;;;542.80;262.67;;;6.80;99.90;;;;;;4993654;28;20034;-73
2023/01/06 02:19:11;;;;;;;559.55;274.55;;;6.70;99.90;;;;;;4983553;28;20078;-73
2023/01/06 02:22:08;;;;;;;557.30;273.45;;;6.70;99.90;;;;;;4974372;28;20039;-73
2023/01/06 02:24:52;;;;;;;574.08;283.10;;;6.70;99.90;;;;;;4974319;28;20046;-73
2023/01/06 02:27:59;;;;;;;559.85;269.77;;;6.70;99.90;;;;;;4974200;28;20669;-73
2023/01/06 02:30:44;;;;;;;527.30;253.23;;;6.80;99.90;;;;;;4978147;28;20030;-73
2023/01/06 02:33:38;;;;;;;528.83;255.93;;;6.90;99.90;;;;;;4993473;28;20151;-73
2023/01/06 02:36:19;;;;;;;519.88;249.10;;;6.80;99.90;;;;;;4992909;28;20050;-73
2023/01/06 02:39:11;;;;;;;467.73;221.93;;;6.70;99.90;;;;;;5009889;28;20104;-73
2023/01/06 02:41:41;;;;;;;480.55;226.60;;;6.60;99.90;;;;;;4990845;28;20508;-73
2023/01/06 02:44:20;;;;;;;454.17;218.43;;;6.70;99.90;;;;;;4996692;28;20041;-73
2023/01/06 02:46:57;;;;;;;419.55;198.98;;;6.70;99.90;;;;;;5055018;28;20467;-73
2023/01/06 02:49:33;;;;;;;344.63;163.80;;;6.70;99.90;;;;;;5037120;28;20025;-73
2023/01/06 02:52:05;;;;;;;331.80;160.43;;;6.60;99.90;;;;;;5054746;28;20043;-73
2023/01/06 02:54:45;;;;;;;342.40;162.23;;;6.70;99.90;;;;;;5054722;28;20048;-73
2023/01/06 02:57:20;;;;;;;341.48;169.13;;;6.60;99.90;;;;;;5053494;28;20037;-73
2023/01/06 03:00:04;;;;;;;364.15;174.98;;;6.70;99.90;;;;;;5037041;28;20063;-73
2023/01/06 03:02:32;;;;;;;360.67;170.63;;;6.70;99.90;;;;;;5054858;28;20025;-73
2023/01/06 03:05:02;;;;;;;412.35;201.02;;;6.70;99.90;;;;;;5036692;28;20033;-73
2023/01/06 03:07:31;;;;;;;421.90;210.80;;;6.70;99.90;;;;;;5065498;28;20116;-73
2023/01/06 03:10:00;;;;;;;449.05;225.00;;;6.80;99.90;;;;;;5069891;28;20131;-73
2023/01/06 03:12:50;;;;;;;451.88;231.10;;;6.80;99.90;;;;;;5070160;28;20032;-73
2023/01/06 03:15:17;;;;;;;415.85;208.93;;;6.60;99.90;;;;;;5069879;28;20029;-73
2023/01/06 03:17:43;;;;;;;408.63;204.88;;;6.50;99.90;;;;;;5069942;28;20025;-73
2023/01/06 03:20:11;;;;;;;324.85;157.68;;;6.50;99.90;;;;;;5054187;28;20025;-73
2023/01/06 03:22:38;;;;;;;264.55;129.07;;;6.40;99.90;;;;;;5053267;28;20029;-73
2023/01/06 03:25:06;;;;;;;345.20;172.98;;;6.50;99.90;;;;;;5054256;28;20029;-73
2023/01/06 03:27:32;;;;;;;337.08;164.57;;;6.50;99.90;;;;;;5052978;28;20052;-72
2023/01/06 03:30:00;;;;;;;294.98;146.00;;;6.30;99.90;;;;;;5036223;28;20029;-73
2023/01/06 03:32:29;;;;;;;282.95;141.55;;;6.10;99.90;;;;;;5069795;28;20021;-73
2023/01/06 03:35:26;;;;;;;259.10;130.35;;;6.00;99.90;;;;;;5054134;28;20029;-72
2023/01/06 03:37:58;;;;;;;259.42;129.45;;;6.20;99.90;;;;;;5069580;28;20406;-73
2023/01/06 03:40:31;;;;;;;277.48;137.00;;;6.30;99.90;;;;;;5054363;28;20036;-73
2023/01/06 03:43:25;;;;;;;251.82;125.38;;;6.30;99.90;;;;;;5069366;28;20033;-73
2023/01/06 03:45:55;;;;;;;239.98;119.75;;;6.10;99.90;;;;;;5069391;28;20033;-73
2023/01/06 03:48:57;;;;;;;235.55;121.40;;;6.00;99.90;;;;;;5052779;28;20028;-73
2023/01/06 03:51:53;;;;;;;245.95;124.72;;;5.90;99.90;;;;;;5052908;28;20425;-72
2023/01/06 03:54:42;;;;;;;236.65;120.47;;;5.90;99.90;;;;;;5069583;28;20029;-72
2023/01/06 03:57:17;;;;;;;216.73;110.53;;;5.80;99.90;;;;;;5069259;28;20029;-73
2023/01/06 03:59:52;;;;;;;244.63;121.28;;;5.90;99.90;;;;;;5069505;28;20040;-72
2023/01/06 04:02:19;;;;;;;256.08;125.95;;;6.00;99.90;;;;;;5069388;28;20120;-72
2023/01/06 04:05:10;;;;;;;250.98;125.65;;;6.10;99.90;;;;;;5069395;28;20487;-72
2023/01/06 04:07:38;;;;;;;257.65;128.18;;;6.10;99.90;;;;;;5070819;28;20041;-73
2023/01/06 04:10:06;;;;;;;260.48;125.40;;;6.10;99.90;;;;;;5073299;28;20029;-73
2023/01/06 04:12:39;;;;;;;251.48;127.25;;;6.20;99.90;;;;;;5073617;28;20032;-73
2023/01/06 04:15:19;;;;;;;248.35;126.30;;;6.20;99.90;;;;;;5056606;28;20033;-73
2023/01/06 04:17:47;;;;;;;260.38;127.72;;;6.10;99.90;;;;;;5057863;28;20029;-73
2023/01/06 04:20:21;;;;;;;246.90;123.25;;;5.90;99.90;;;;;;5057023;28;20497;-72
2023/01/06 04:22:51;;;;;;;233.07;117.47;;;5.90;99.90;;;;;;5056576;28;20025;-73
2023/01/06 04:25:17;;;;;;;224.27;112.78;;;5.80;99.90;;;;;;5056318;28;20025;-73
2023/01/06 04:27:43;;;;;;;249.05;122.68;;;5.70;99.90;;;;;;5039932;28;20017;-73
2023/01/06 04:30:10;;;;;;;277.48;136.75;;;5.80;99.90;;;;;;5039492;28;20052;-73
2023/01/06 04:32:37;;;;;;;307.55;147.90;;;5.80;99.90;;;;;;5057631;28;20029;-73
2023/01/06 04:35:06;;;;;;;300.35;147.93;;;5.90;99.90;;;;;;5072857;28;20060;-72
2023/01/06 04:37:33;;;;;;;315.65;148.70;;;5.90;99.90;;;;;;5072950;28;20037;-73
2023/01/06 04:39:59;;;;;;;294.63;137.73;;;6.00;99.90;;;;;;5057437;28;20210;-73
2023/01/06 04:42:25;;;;;;;270.02;128.88;;;6.00;99.90;;;;;;5057611;28;20413;-73
2023/01/06 04:44:51;;;;;;;243.57;120.05;;;5.90;99.90;;;;;;5057472;28;20029;-73
2023/01/06 04:47:17;;;;;;;237.25;117.47;;;5.80;99.90;;;;;;5057252;28;20115;-73
2023/01/06 04:49:43;;;;;;;280.98;137.15;;;5.70;99.90;;;;;;5057516;28;20036;-73
2023/01/06 04:52:09;;;;;;;289.45;143.55;;;5.60;99.90;;;;;;5057101;28;20021;-73
2023/01/06 04:54:35;;;;;;;298.83;148.70;;;5.70;99.90;;;;;;5057292;28;20083;-73
2023/01/06 04:57:02;;;;;;;273.92;135.48;;;5.80;99.90;;;;;;5057059;28;20033;-73
2023/01/06 04:59:27;;;;;;;261.58;133.68;;;5.70;99.90;;;;;;5057141;28;20040;-72
2023/01/06 05:01:53;;;;;;;254.35;127.28;;;5.60;99.90;;;;;;5057017;28;20478;-73
2023/01/06 05:04:19;;;;;;;269.13;134.88;;;5.50;99.90;;;;;;5072496;28;20068;-73
2023/01/06 05:06:45;;;;;;;238.15;120.25;;;5.40;99.90;;;;;;5066172;28;20067;-73
2023/01/06 05:09:11;;;;;;;244.65;122.25;;;5.50;99.90;;;;;;5076941;28;20036;-73
2023/01/06 05:11:37;;;;;;;246.05;126.35;;;5.40;99.90;;;;;;5076884;28;20031;-73
2023/01/06 05:14:03;;;;;;;260.35;129.32;;;5.40;99.90;;;;;;5076874;28;20051;-73
2023/01/06 05:16:31;;;;;;;265.90;133.85;;;5.30;99.90;;;;;;5076982;28;20098;-73
2023/01/06 05:18:58;;;;;;;267.30;131.88;;;5.30;99.90;;;;;;5067884;28;20569;-73
2023/01/06 05:21:26;;;;;;;260.33;132.80;;;5.20;99.90;;;;;;5056638;28;20036;-73
2023/01/06 05:23:53;;;;;;;252.90;128.52;;;5.20;99.90;;;;;;5056629;28;20039;-73
2023/01/06 05:26:21;;;;;;;260.98;130.00;;;5.10;99.90;;;;;;5071789;28;20043;-73
2023/01/06 05:28:47;;;;;;;262.05;128.73;;;5.10;99.90;;;;;;5056596;28;20025;-73
2023/01/06 05:31:15;;;;;;;237.77;117.68;;;5.10;99.90;;;;;;5067934;28;20032;-73
2023/01/06 05:33:41;;;;;;;232.75;121.68;;;5.10;99.90;;;;;;5076720;28;20032;-73
2023/01/06 05:36:11;;;;;;;238.38;115.55;;;5.00;99.90;;;;;;5076426;28;20580;-73
2023/01/06 05:38:37;;;;;;;244.38;122.88;;;5.00;99.90;;;;;;5076421;28;20535;-73
2023/01/06 05:41:03;;;;;;;256.70;127.10;;;5.10;99.90;;;;;;5076213;28;20428;-73
2023/01/06 05:43:32;;;;;;;252.77;125.97;;;5.00;99.90;;;;;;5076237;28;20036;-73
2023/01/06 05:45:59;;;;;;;290.63;138.52;;;5.10;99.90;;;;;;5076004;28;20032;-73
2023/01/06 05:48:26;;;;;;;261.52;127.13;;;5.20;99.90;;;;;;5076285;28;20068;-73
2023/01/06 05:51:00;;;;;;;263.88;129.15;;;5.20;99.90;;;;;;5076031;28;20385;-73
2023/01/06 05:53:26;;;;;;;268.52;132.32;;;5.30;99.90;;;;;;5076220;28;20052;-73
2023/01/06 05:55:51;;;;;;;258.42;127.47;;;5.30;99.90;;;;;;5076051;28;20070;-72
2023/01/06 05:58:17;;;;;;;283.63;156.88;;;5.30;99.90;;;;;;5075796;28;20060;-73
2023/01/06 06:00:43;;;;;;;258.58;132.80;;;5.30;99.90;;;;;;5076177;28;20036;-73
2023/01/06 06:03:09;;;;;;;266.27;130.23;;;5.40;99.90;;;;;;5075833;28;20024;-73
2023/01/06 06:05:35;;;;;;;274.52;136.80;;;5.40;99.90;;;;;;5075685;28;20371;-73
2023/01/06 06:08:01;;;;;;;274.15;133.38;;;5.40;99.90;;;;;;5075525;28;20045;-73
2023/01/06 06:10:27;;;;;;;258.17;128.35;;;5.30;99.90;;;;;;5074410;28;20025;-73
2023/01/06 06:12:53;;;;;;;257.50;129.13;;;5.40;99.90;;;;;;5075630;28;20393;-73
2023/01/06 06:15:19;;;;;;;261.98;131.10;;;5.40;99.90;;;;;;5075570;28;20028;-73
2023/01/06 06:17:45;;;;;;;261.65;126.63;;;5.40;99.90;;;;;;5075628;28;20023;-73
2023/01/06 06:20:11;;;;;;;244.05;122.32;;;5.30;99.90;;;;;;5056481;28;20471;-73
2023/01/06 06:22:37;;;;;;;214.27;110.20;;;5.20;99.90;;;;;;5055999;28;20056;-73
2023/01/06 06:25:03;;;;;;;214.25;112.25;;;5.20;99.90;;;;;;5055282;28;20021;-73
2023/01/06 06:27:29;;;;;;;230.13;114.40;;;5.10;99.90;;;;;;5055497;28;20037;-73
2023/01/06 06:29:55;;;;;;;270.00;133.18;;;5.20;99.90;;;;;;5055040;28;20033;-73
2023/01/06 06:32:21;;;;;;;250.52;126.60;;;5.30;99.90;;;;;;5076195;28;20146;-73
2023/01/06 06:34:47;;;;;;;289.63;139.95;;;5.30;99.90;;;;;;5076128;28;20111;-73
2023/01/06 06:37:13;;;;;;;255.80;128.65;;;5.40;99.90;;;;;;5068782;28;20499;-73
2023/01/06 06:39:38;;;;;;;256.08;129.68;;;5.50;99.90;;;;;;5073621;28;20077;-73
2023/01/06 06:42:05;;;;;;;285.23;141.10;;;5.50;99.90;;;;;;5074611;28;20410;-73
2023/01/06 06:44:30;;;;;;;286.48;138.77;;;5.50;99.90;;;;;;5075166;28;20517;-73
2023/01/06 06:46:57;;;;;;;285.55;141.90;;;5.50;99.90;;;;;;5073882;28;20056;-73
2023/01/06 06:49:23;;;;;;;268.52;137.65;;;5.40;99.90;;;;;;5074833;28;20024;-73
2023/01/06 06:51:49;;;;;;;279.88;142.77;;;5.50;99.90;;;;;;5075009;28;20031;-73
2023/01/06 06:54:15;;;;;;;288.88;145.25;;;5.60;99.90;;;;;;5064579;28;20029;-73
2023/01/06 06:56:41;;;;;;;293.40;147.38;;;5.60;99.90;;;;;;5071176;28;20394;-73
2023/01/06 06:59:07;;;;;;;299.42;149.52;;;5.60;99.90;;;;;;5059356;28;20052;-74
2023/01/06 07:01:33;;;;;;;301.05;145.93;;;5.60;99.90;;;;;;5067133;28;20056;-73
2023/01/06 07:03:59;;;;;;;311.73;148.68;;;5.70;99.90;;;;;;5062364;28;20033;-73
2023/01/06 07:06:26;;;;;;;273.40;136.68;;;5.80;99.90;;;;;;5054389;28;20049;-73
2023/01/06 07:08:52;;;;;;;287.08;141.32;;;6.00;99.90;;;;;;5052928;28;20029;-73
2023/01/06 07:11:19;;;;;;;286.48;144.23;;;5.90;99.90;;;;;;5054456;28;20467;-73
2023/01/06 07:13:45;;;;;;;284.20;143.60;;;5.70;99.90;;;;;;5054492;28;20033;-73
2023/01/06 07:16:11;;;;;;;290.73;150.98;;;5.80;99.90;;;;;;5054362;28;20031;-73
2023/01/06 07:18:38;;;;;;;298.33;146.25;;;5.80;99.90;;;;;;5054288;28;20104;-73
2023/01/06 07:21:05;;;;;;;305.63;148.27;;;5.90;99.90;;;;;;5054355;28;20036;-73
2023/01/06 07:23:31;;;;;;;312.52;152.27;;;6.20;99.90;;;;;;5054167;28;20517;-73
2023/01/06 07:25:59;;;;;;;280.73;136.02;;;6.40;99.90;;;;;;5054316;28;20167;-73
2023/01/06 07:28:26;;;;;;;284.95;133.27;;;6.50;99.90;;;;;;5055434;28;20048;-73
2023/01/06 07:30:52;;;;;;;213.10;104.47;;;6.50;99.90;;;;;;5053477;28;20437;-73
2023/01/06 07:33:19;;;;;;;214.77;96.82;;;6.40;99.90;;;;;;5051424;28;20021;-73
2023/01/06 07:35:45;;;;;;;198.43;104.95;;;6.40;99.90;;;;;;5051743;28;20028;-73
2023/01/06 07:38:11;;;;;;;217.30;99.95;;;6.40;99.90;;;;;;5052291;28;20047;-73
2023/01/06 07:40:48;;;;;;;218.82;105.38;;;6.40;99.90;;;;;;5053014;28;20088;-73
2023/01/06 07:43:15;;;;;;;230.38;114.65;;;6.50;99.90;;;;;;5043363;28;20029;-73
2023/01/06 07:45:41;;;;;;;242.82;116.47;;;6.50;99.90;;;;;;5050944;28;20031;-73
2023/01/06 07:48:10;;;;;;;262.75;128.43;;;6.60;99.90;;;;;;5051339;28;20532;-73
2023/01/06 07:50:36;;;;;;;255.00;127.22;;;7.00;99.90;;;;;;5050811;28;20021;-73
2023/01/06 07:53:09;;;;;;;241.45;127.05;;;7.20;99.90;;;;;;5053577;28;20093;-73
2023/01/06 07:55:35;;;;;;;254.15;133.00;;;7.40;99.90;;;;;;5053782;28;20116;-73
2023/01/06 07:58:08;;;;;;;274.60;136.65;;;7.80;99.90;;;;;;5053571;28;20475;-73
2023/01/06 08:00:34;;;;;;;283.48;144.98;;;8.10;99.90;;;;;;5069785;28;20047;-73
2023/01/06 08:03:05;;;;;;;276.95;134.07;;;8.20;99.90;;;;;;5073145;28;20097;-73
2023/01/06 08:05:32;;;;;;;227.77;119.63;;;8.40;99.90;;;;;;5055063;28;20043;-73
2023/01/06 08:07:58;;;;;;;251.25;125.18;;;8.60;99.90;;;;;;5052411;28;20112;-73
2023/01/06 08:10:24;;;;;;;235.68;116.95;;;8.50;99.90;;;;;;5049757;28;20104;-73
2023/01/06 08:12:52;;;;;;;240.35;121.80;;;8.50;99.90;;;;;;5052141;28;20548;-73
2023/01/06 08:15:18;;;;;;;220.60;115.25;;;8.50;99.90;;;;;;5054521;28;20021;-73
2023/01/06 08:17:44;;;;;;;229.50;117.47;;;8.30;99.90;;;;;;5073026;28;20073;-73
2023/01/06 08:20:10;;;;;;;234.63;119.55;;;8.30;99.90;;;;;;5054715;28;20061;-73
2023/01/06 08:22:36;;;;;;;221.65;117.05;;;8.30;99.90;;;;;;5052220;28;20483;-73
2023/01/06 08:25:02;;;;;;;219.82;115.45;;;8.50;99.90;;;;;;5053483;28;20036;-72
2023/01/06 08:27:28;;;;;;;219.73;114.30;;;9.50;99.90;;;;;;5054971;28;20078;-72
2023/01/06 08:29:54;;;;;;;237.88;116.03;;;11.00;99.90;;;;;;5056511;28;20032;-72
2023/01/06 08:32:20;;;;;;;275.30;127.72;;;12.20;99.90;;;;;;5071395;28;20024;-72
2023/01/06 08:34:47;;;;;;;238.73;119.45;;;13.00;95.40;;;;;;5056828;28;20025;-72
2023/01/06 08:37:13;;;;;;;257.88;120.70;;;13.60;93.20;;;;;;5053877;28;20534;-72
2023/01/06 08:39:39;;;;;;;259.00;126.30;;;14.60;90.40;;;;;;5054348;28;20082;-71
2023/01/06 08:42:05;;;;;;;220.75;113.68;;;14.70;81.60;;;;;;5053756;28;20033;-71
2023/01/06 08:44:31;;;;;;;216.95;116.10;;;15.40;80.60;;;;;;5054210;28;20087;-72
2023/01/06 08:46:57;;;;;;;213.50;112.22;;;16.00;78.00;;;;;;5053924;28;20435;-72
2023/01/06 08:49:23;;;;;;;237.00;126.82;;;16.70;72.30;;;;;;5053663;28;20374;-72
2023/01/06 08:51:49;;;;;;;195.63;109.88;;;15.80;71.60;;;;;;5053011;28;20037;-72
2023/01/06 08:54:15;;;;;;;186.32;110.55;;;16.40;71.30;;;;;;5059256;28;20062;-72
2023/01/06 08:56:43;;;;;;;194.05;107.28;;;16.70;70.30;;;;;;5060008;28;20040;-72
2023/01/06 08:59:16;;;;;;;186.82;103.47;;;17.40;65.70;;;;;;5056960;28;20025;-72
2023/01/06 09:01:43;;;;;;;195.35;108.95;;;18.30;63.80;;;;;;5054279;28;20067;-72
2023/01/06 09:04:10;;;;;;;187.68;106.85;;;18.20;61.00;;;;;;5066110;28;20028;-72
2023/01/06 09:06:36;;;;;;;182.70;101.20;;;17.90;59.30;;;;;;5065344;28;20128;-72
2023/01/06 09:09:04;;;;;;;192.73;106.82;;;18.20;60.30;;;;;;5073558;28;20025;-72
2023/01/06 09:11:30;;;;;;;188.32;105.10;;;18.50;60.20;;;;;;5053558;28;20071;-73
2023/01/06 09:14:00;;;;;;;205.30;106.38;;;18.10;59.90;;;;;;5047785;28;20029;-73
2023/01/06 09:16:26;;;;;;;189.43;103.88;;;18.70;58.90;;;;;;5048862;28;20451;-73
2023/01/06 09:18:52;;;;;;;180.05;102.47;;;18.70;57.70;;;;;;5035835;28;20266;-73
2023/01/06 09:21:21;;;;;;;179.57;100.00;;;18.80;57.40;;;;;;5055722;28;20043;-73
2023/01/06 09:23:47;;;;;;;163.48;93.60;;;19.10;55.60;;;;;;5048461;28;20741;-73
2023/01/06 09:26:15;;;;;;;167.00;94.68;;;19.40;56.00;;;;;;5054939;28;20029;-73
2023/01/06 09:28:41;;;;;;;175.43;92.68;;;20.00;53.00;;;;;;5056573;28;20087;-73
2023/01/06 09:31:08;;;;;;;151.43;82.45;;;19.70;55.10;;;;;;5060728;28;20117;-73
2023/01/06 09:33:34;;;;;;;137.70;83.07;;;19.50;53.60;;;;;;5056445;28;20106;-73
2023/01/06 09:36:00;;;;;;;182.70;99.05;;;20.00;54.10;;;;;;5055960;28;20021;-74
2023/01/06 09:38:27;;;;;;;209.80;113.53;;;20.50;52.70;;;;;;5053968;28;20031;-73
2023/01/06 09:41:05;;;;;;;208.32;114.50;;;20.00;52.70;;;;;;5056645;28;20521;-73
2023/01/06 09:43:40;;;;;;;190.38;108.97;;;20.60;51.80;;;;;;5029833;28;20033;-73
2023/01/06 09:46:09;;;;;;;254.45;140.38;;;20.30;51.50;;;;;;5056028;28;20112;-73
2023/01/06 09:48:45;;;;;;;321.73;186.40;;;20.60;50.90;;;;;;5055177;28;20361;-73
2023/01/06 09:51:18;;;;;;;323.25;188.52;;;20.00;51.20;;;;;;5058998;28;20032;-73
2023/01/06 09:53:52;;;;;;;308.58;173.50;;;19.60;53.70;;;;;;5072422;28;20116;-73
2023/01/06 09:56:22;;;;;;;186.63;106.00;;;20.70;51.30;;;;;;5056148;28;20490;-73
2023/01/06 09:58:54;;;;;;;270.08;154.00;;;20.70;49.40;;;;;;5056148;28;20033;-73
2023/01/06 10:01:28;;;;;;;182.10;104.38;;;21.00;48.90;;;;;;5048067;28;20470;-73
2023/01/06 10:03:56;;;;;;;147.52;82.45;;;20.90;48.30;;;;;;5056018;28;20462;-73
2023/01/06 10:06:24;;;;;;;106.72;65.38;;;21.40;48.50;;;;;;5054387;28;20060;-73
2023/01/06 10:09:32;;;;;;;167.57;90.10;;;21.50;46.60;;;;;;5047402;28;20399;-73
2023/01/06 10:12:33;;;;;;;77.55;45.28;;;21.30;46.90;;;;;;5046541;28;20487;-73
2023/01/06 10:15:08;;;;;;;82.55;46.30;;;22.20;45.00;;;;;;5055928;28;20111;-74
2023/01/06 10:18:08;;;;;;;138.35;75.97;;;22.20;44.00;;;;;;5050022;28;20025;-73
2023/01/06 10:21:01;;;;;;;116.15;61.95;;;22.70;44.20;;;;;;5051181;28;20036;-74
2023/01/06 10:23:27;;;;;;;205.80;106.00;;;22.90;43.00;;;;;;5069862;28;20060;-74
2023/01/06 10:25:56;;;;;;;178.20;103.10;;;22.40;43.80;;;;;;5054277;28;20076;-74
2023/01/06 10:28:30;;;;;;;229.55;121.15;;;23.00;43.80;;;;;;5054268;28;20467;-74
2023/01/06 10:31:01;;;;;;;214.65;112.80;;;22.40;43.90;;;;;;5052597;28;20025;-74
2023/01/06 10:33:32;;;;;;;183.80;92.88;;;22.30;44.10;;;;;;5055263;28;20025;-73
2023/01/06 10:35:59;;;;;;;143.70;78.47;;;22.60;43.50;;;;;;5054002;28;20090;-74
2023/01/06 10:38:36;;;;;;;94.35;53.13;;;22.80;42.90;;;;;;5055905;28;20033;-74
2023/01/06 10:41:21;;;;;;;104.00;62.13;;;23.30;41.00;;;;;;5055433;28;20047;-74
2023/01/06 10:43:48;;;;;;;77.97;48.00;;;23.00;41.50;;;;;;5056077;28;20080;-74
2023/01/06 10:46:15;;;;;;;78.10;49.47;;;23.20;41.00;;;;;;5055806;28;20053;-74
2023/01/06 10:48:42;;;;;;;71.93;46.30;;;23.10;41.30;;;;;;5055788;28;20378;-73
2023/01/06 10:51:33;;;;;;;72.82;42.75;;;22.60;41.40;;;;;;5054506;28;20489;-74
2023/01/06 10:54:20;;;;;;;68.50;43.00;;;22.20;42.40;;;;;;5055040;28;20029;-74
2023/01/06 10:56:53;;;;;;;79.15;43.70;;;22.20;42.70;;;;;;5054678;28;20040;-73
2023/01/06 10:59:19;;;;;;;70.78;42.35;;;22.20;42.50;;;;;;5051565;28;20056;-73
2023/01/06 11:01:51;;;;;;;70.40;42.25;;;22.50;43.40;;;;;;5054740;28;20025;-74
2023/01/06 11:04:18;;;;;;;66.75;40.35;;;22.50;42.50;;;;;;5054628;28;20029;-74
2023/01/06 11:06:54;;;;;;;76.45;43.42;;;22.70;41.80;;;;;;5054885;28;20087;-73
2023/01/06 11:09:43;;;;;;;54.40;35.47;;;22.90;42.00;;;;;;5054649;28;20029;-74
2023/01/06 11:12:19;;;;;;;59.65;39.40;;;23.40;39.90;;;;;;5054565;28;20029;-74
2023/01/06 11:14:58;;;;;;;49.53;31.73;;;23.00;41.30;;;;;;5054255;28;20021;-74
2023/01/06 11:17:26;;;;;;;48.65;30.08;;;23.10;39.60;;;;;;5053514;28;20029;-74
2023/01/06 11:20:12;;;;;;;48.85;30.75;;;22.40;40.90;;;;;;5055117;28;20035;-76
2023/01/06 11:22:40;;;;;;;37.17;24.15;;;22.20;41.90;;;;;;5053000;28;20029;-76
2023/01/06 11:25:28;;;;;;;42.22;24.65;;;23.20;40.20;;;;;;5060324;28;20033;-78
2023/01/06 11:28:18;;;;;;;40.28;25.27;;;23.50;38.70;;;;;;5069417;28;20040;-76
2023/01/06 11:30:52;;;;;;;42.13;25.03;;;23.10;40.10;;;;;;5055113;28;20088;-75
2023/01/06 11:33:21;;;;;;;34.90;22.80;;;23.40;38.80;;;;;;5054779;28;20466;-75
2023/01/06 11:35:48;;;;;;;37.45;22.35;;;23.10;39.20;;;;;;5054438;28;20036;-76
2023/01/06 11:38:16;;;;;;;42.33;21.70;;;23.00;38.40;;;;;;5046721;28;20029;-75
2023/01/06 11:40:49;;;;;;;31.15;17.98;;;23.60;38.20;;;;;;5046762;28;20151;-75
2023/01/06 11:43:24;;;;;;;23.35;14.68;;;23.80;37.10;;;;;;5041857;28;20055;-75
2023/01/06 11:46:03;;;;;;;29.27;16.27;;;24.00;37.10;;;;;;5033565;28;20029;-75
2023/01/06 11:48:50;;;;;;;30.23;16.70;;;24.20;37.30;;;;;;5034844;28;20025;-74
2023/01/06 11:51:31;;;;;;;40.65;21.00;;;24.00;36.10;;;;;;5035036;28;20101;-75
2023/01/06 11:53:57;;;;;;;33.10;17.10;;;23.70;37.30;;;;;;5033958;28;20695;-75
2023/01/06 11:56:24;;;;;;;31.08;16.33;;;23.90;37.30;;;;;;5034109;28;20041;-75
2023/01/06 11:59:09;;;;;;;29.77;16.77;;;23.90;36.00;;;;;;5034440;28;20028;-75
2023/01/06 12:01:40;;;;;;;22.10;10.52;;;24.00;35.20;;;;;;5034835;28;20044;-75
2023/01/06 12:04:22;;;;;;;22.23;8.10;;;23.60;34.50;;;;;;5041417;28;20029;-75
2023/01/06 12:06:54;;;;;;;6.68;3.97;;;23.70;33.70;;;;;;5064185;28;20049;-74
2023/01/06 12:09:31;;;;;;;12.55;5.90;;;22.90;34.10;;;;;;5074170;28;20082;-75
2023/01/06 12:12:02;;;;;;;8.82;5.30;;;23.00;33.20;;;;;;5074908;28;20029;-75
2023/01/06 12:14:34;;;;;;;11.20;6.32;;;22.70;33.90;;;;;;5074530;28;20020;-75
2023/01/06 12:21:02;;;;;;;20.92;6.53;;;23.40;34.20;;;;;;5054526;28;20124;-74
2023/01/06 12:23:36;;;;;;;12.93;5.60;;;22.90;33.90;;;;;;5052271;28;20032;-74
2023/01/06 12:26:08;;;;;;;9.43;5.30;;;22.70;35.70;;;;;;5051846;28;20029;-74
2023/01/06 12:28:40;;;;;;;11.65;5.43;;;22.50;35.90;;;;;;5062193;28;20021;-74
2023/01/06 12:31:35;;;;;;;10.85;5.50;;;23.20;34.70;;;;;;5060632;28;20061;-74
2023/01/06 12:34:20;;;;;;;11.20;6.35;;;23.50;34.50;;;;;;5047145;28;20036;-74
2023/01/06 12:36:49;;;;;;;20.75;7.38;;;23.20;34.40;;;;;;5072476;28;20029;-74
2023/01/06 12:39:26;;;;;;;12.10;7.05;;;23.60;34.90;;;;;;5056925;28;20028;-74
2023/01/06 12:41:57;;;;;;;16.83;7.82;;;23.50;34.80;;;;;;5055429;28;20037;-75